createdAt,value
2022-08-03T00:00:36.412Z,101162.09
2022-08-03T00:03:04.771Z,101164.06
2022-08-03T00:05:34.017Z,101167.22
2022-08-03T00:08:02.752Z,101165.06
2022-08-03T00:10:34.216Z,101164.22
2022-08-03T00:13:02.444Z,101164.53
2022-08-03T00:15:30.703Z,101157.56
2022-08-03T00:17:58.925Z,101157.06
2022-08-03T00:20:27.207Z,101164.06
2022-08-03T00:22:55.414Z,101159.91
2022-08-03T00:25:23.827Z,101158.56
2022-08-03T00:27:53.463Z,101153.56
2022-08-03T00:30:21.904Z,101150.41
2022-08-03T00:32:55.064Z,101151.22
2022-08-03T00:35:37.020Z,101147.09
2022-08-03T00:38:11.803Z,101154.25
2022-08-03T00:40:40.149Z,101151.06
2022-08-03T00:43:10.674Z,101143.72
2022-08-03T00:45:41.777Z,101149.06
2022-08-03T00:48:29.825Z,101145.41
2022-08-03T00:51:00.643Z,101143.25
2022-08-03T00:53:29.633Z,101140.09
2022-08-03T00:55:58.286Z,101144.91
2022-08-03T00:58:27.956Z,101138.56
2022-08-03T01:00:56.268Z,101139.41
2022-08-03T01:03:24.522Z,101138.06
2022-08-03T01:06:01.680Z,101148.06
2022-08-03T01:08:41.513Z,101143.88
2022-08-03T01:11:17.671Z,101149.72
2022-08-03T01:14:03.958Z,101145.56
2022-08-03T01:16:56.867Z,101146.34
2022-08-03T01:19:43.681Z,101150.00
2022-08-03T01:22:41.416Z,101137.88
2022-08-03T01:25:25.794Z,101142.66
2022-08-03T01:28:10.858Z,101150.16
2022-08-03T01:30:44.798Z,101147.97
2022-08-03T01:33:20.008Z,101151.31
2022-08-03T01:35:55.533Z,101148.97
2022-08-03T01:38:28.689Z,101149.31
2022-08-03T01:40:58.215Z,101143.66
2022-08-03T01:44:26.629Z,101145.63
2022-08-03T01:46:21.118Z,101134.66
2022-08-03T01:48:51.367Z,101139.16
2022-08-03T01:51:22.019Z,101142.16
2022-08-03T01:53:51.429Z,101132.84
2022-08-03T01:56:21.261Z,101137.16
2022-08-03T01:58:50.896Z,101135.50
2022-08-03T02:01:23.679Z,101133.97
2022-08-03T02:03:59.917Z,101127.50
2022-08-03T02:07:01.651Z,101123.81
2022-08-03T02:09:23.921Z,101123.28
2022-08-03T02:11:54.296Z,101122.56
2022-08-03T02:14:24.522Z,101127.94
2022-08-03T02:16:55.550Z,101125.31
2022-08-03T02:19:24.757Z,101125.31
2022-08-03T02:21:56.286Z,101127.28
2022-08-03T02:24:29.751Z,101140.28
2022-08-03T02:26:59.302Z,101130.97
2022-08-03T02:29:39.761Z,101135.28
2022-08-03T02:32:13.754Z,101137.94
2022-08-03T02:34:47.110Z,101137.09
2022-08-03T02:37:19.464Z,101130.81
2022-08-03T02:39:52.072Z,101134.09
2022-08-03T02:42:24.958Z,101131.94
2022-08-03T02:44:58.187Z,101125.25
2022-08-03T02:47:29.030Z,101137.06
2022-08-03T02:50:18.621Z,101135.41
2022-08-03T02:52:49.082Z,101134.38
2022-08-03T02:55:20.820Z,101130.22
2022-08-03T02:57:49.849Z,101120.22
2022-08-03T03:00:19.343Z,101127.03
2022-08-03T03:02:59.601Z,101124.53
2022-08-03T03:05:53.222Z,101127.53
2022-08-03T03:08:25.969Z,101127.34
2022-08-03T03:10:56.258Z,101129.53
2022-08-03T03:13:25.682Z,101133.84
2022-08-03T03:15:55.568Z,101129.16
2022-08-03T03:18:26.264Z,101127.66
2022-08-03T03:20:55.170Z,101119.00
2022-08-03T03:23:25.026Z,101130.63
2022-08-03T03:25:56.032Z,101137.09
2022-08-03T03:28:25.242Z,101129.75
2022-08-03T03:30:53.915Z,101128.59
2022-08-03T03:33:24.157Z,101124.94
2022-08-03T03:35:52.933Z,101125.72
2022-08-03T03:38:21.530Z,101124.34
2022-08-03T03:40:50.215Z,101123.34
2022-08-03T03:43:19.619Z,101127.25
2022-08-03T03:45:49.471Z,101131.38
2022-08-03T03:48:17.921Z,101130.03
2022-08-03T03:50:50.259Z,101126.38
2022-08-03T03:53:18.609Z,101124.19
2022-08-03T03:55:59.274Z,101121.19
2022-08-03T03:58:33.768Z,101129.53
2022-08-03T04:01:02.694Z,101128.19
2022-08-03T04:03:31.223Z,101129.94
2022-08-03T04:06:18.217Z,101133.56
2022-08-03T04:09:04.813Z,101137.69
2022-08-03T04:11:39.705Z,101132.97
2022-08-03T04:14:13.246Z,101131.09
2022-08-03T04:16:45.036Z,101129.75
2022-08-03T04:19:23.065Z,101129.22
2022-08-03T04:21:58.705Z,101122.88
2022-08-03T04:24:32.001Z,101123.91
2022-08-03T04:27:01.981Z,101124.13
2022-08-03T04:29:32.249Z,101133.22
2022-08-03T04:32:08.715Z,101126.84
2022-08-03T04:34:37.440Z,101132.28
2022-08-03T04:37:13.512Z,101134.28
2022-08-03T04:39:44.535Z,101128.69
2022-08-03T04:42:15.140Z,101131.88
2022-08-03T04:44:47.017Z,101127.53
2022-08-03T04:47:15.641Z,101135.13
2022-08-03T04:49:44.671Z,101133.47
2022-08-03T04:52:14.660Z,101145.00
2022-08-03T04:54:45.836Z,101141.13
2022-08-03T04:57:22.782Z,101144.31
2022-08-03T05:00:02.499Z,101140.44
2022-08-03T05:02:32.269Z,101143.38
2022-08-03T05:05:01.107Z,101147.56
2022-08-03T05:07:35.760Z,101138.53
2022-08-03T05:10:15.074Z,101145.75
2022-08-03T05:12:46.681Z,101147.78
2022-08-03T05:15:15.946Z,101141.78
2022-08-03T05:17:44.632Z,101145.78
2022-08-03T05:20:13.555Z,101147.97
2022-08-03T05:22:46.144Z,101155.38
2022-08-03T05:25:17.408Z,101147.84
2022-08-03T05:27:49.007Z,101154.88
2022-08-03T05:30:32.311Z,101161.75
2022-08-03T05:33:04.688Z,101153.16
2022-08-03T05:36:01.149Z,101156.03
2022-08-03T05:38:33.179Z,101160.88
2022-08-03T05:41:22.857Z,101156.50
2022-08-03T05:43:53.775Z,101159.88
2022-08-03T05:46:22.525Z,101154.78
2022-08-03T05:48:50.975Z,101160.50
2022-08-03T05:51:19.448Z,101161.03
2022-08-03T05:53:49.209Z,101160.94
2022-08-03T05:56:17.640Z,101168.09
2022-08-03T05:58:48.077Z,101161.84
2022-08-03T06:01:16.963Z,101160.06
2022-08-03T06:03:45.544Z,101156.69
2022-08-03T06:06:13.899Z,101160.16
2022-08-03T06:08:42.610Z,101155.16
2022-08-03T06:11:13.001Z,101148.56
2022-08-03T06:13:41.611Z,101163.56
2022-08-03T06:16:10.081Z,101162.41
2022-08-03T06:18:39.093Z,101156.03
2022-08-03T06:21:14.742Z,101157.97
2022-08-03T06:23:54.055Z,101158.34
2022-08-03T06:26:27.583Z,101160.88
2022-08-03T06:28:55.887Z,101167.56
2022-08-03T06:31:33.239Z,101164.56
2022-08-03T06:34:34.350Z,101164.78
2022-08-03T06:36:53.200Z,101166.25
2022-08-03T06:39:23.514Z,101169.97
2022-08-03T06:41:54.310Z,101166.16
2022-08-03T06:44:22.596Z,101170.81
2022-08-03T06:46:51.268Z,101158.25
2022-08-03T06:49:20.039Z,101163.34
2022-08-03T06:52:03.661Z,101170.56
2022-08-03T06:54:36.387Z,101179.53
2022-08-03T06:57:08.348Z,101169.38
2022-08-03T07:00:09.297Z,101168.13
2022-08-03T07:02:24.970Z,101165.25
2022-08-03T07:04:57.145Z,101165.09
2022-08-03T07:07:25.548Z,101173.25
2022-08-03T07:09:57.647Z,101169.25
2022-08-03T07:12:29.942Z,101167.22
2022-08-03T07:15:02.220Z,101180.03
2022-08-03T07:17:33.241Z,101179.09
2022-08-03T07:20:03.144Z,101172.09
2022-08-03T07:22:31.694Z,101178.00
2022-08-03T07:25:00.592Z,101181.50
2022-08-03T07:27:30.498Z,101183.03
2022-08-03T07:29:59.696Z,101189.81
2022-08-03T07:32:31.428Z,101186.44
2022-08-03T07:35:01.069Z,101187.81
2022-08-03T07:37:31.528Z,101187.97
2022-08-03T07:40:00.361Z,101191.22
2022-08-03T07:42:31.377Z,101181.75
2022-08-03T07:45:00.202Z,101182.78
2022-08-03T07:47:35.395Z,101193.88
2022-08-03T07:50:08.684Z,101187.06
2022-08-03T07:52:50.022Z,101190.63
2022-08-03T07:55:19.599Z,101190.31
2022-08-03T07:57:59.936Z,101178.81
2022-08-03T08:00:28.157Z,101179.28
2022-08-03T08:02:56.428Z,101182.38
2022-08-03T08:05:24.686Z,101182.88
2022-08-03T08:07:52.908Z,101183.13
2022-08-03T08:10:21.425Z,101188.06
2022-08-03T08:12:51.090Z,101174.97
2022-08-03T08:15:19.321Z,101173.66
2022-08-03T08:17:50.157Z,101180.63
2022-08-03T08:20:27.993Z,101180.06
2022-08-03T08:23:01.513Z,101183.41
2022-08-03T08:25:31.445Z,101183.78
2022-08-03T08:28:30.387Z,101184.50
2022-08-03T08:30:52.081Z,101186.34
2022-08-03T08:33:23.338Z,101185.28
2022-08-03T08:35:54.423Z,101181.16
2022-08-03T08:38:23.926Z,101176.94
2022-08-03T08:40:52.395Z,101177.72
2022-08-03T08:43:21.990Z,101171.53
2022-08-03T08:45:51.808Z,101176.47
2022-08-03T08:48:27.052Z,101181.28
2022-08-03T08:50:57.216Z,101179.69
2022-08-03T08:53:30.251Z,101177.44
2022-08-03T08:56:01.614Z,101174.88
2022-08-03T08:58:38.656Z,101178.47
2022-08-03T09:01:07.313Z,101174.44
2022-08-03T09:03:35.717Z,101178.94
2022-08-03T09:06:05.387Z,101173.47
2022-08-03T09:08:34.599Z,101181.00
2022-08-03T09:11:02.868Z,101173.53
2022-08-03T09:13:34.050Z,101165.81
2022-08-03T09:16:16.333Z,101171.75
2022-08-03T09:18:46.771Z,101169.47
2022-08-03T09:21:33.328Z,101177.09
2022-08-03T09:24:08.453Z,101184.31
2022-08-03T09:26:39.537Z,101178.50
2022-08-03T09:29:15.565Z,101171.50
2022-08-03T09:31:47.451Z,101180.19
2022-08-03T09:34:18.044Z,101180.56
2022-08-03T09:36:48.555Z,101186.34
2022-08-03T09:39:19.435Z,101176.78
2022-08-03T09:41:49.243Z,101173.53
2022-08-03T09:44:25.764Z,101174.75
2022-08-03T09:46:57.175Z,101176.47
2022-08-03T09:49:26.352Z,101167.91
2022-08-03T09:52:33.519Z,101163.47
2022-08-03T09:54:45.346Z,101167.78
2022-08-03T09:57:24.182Z,101160.81
2022-08-03T10:00:02.919Z,101166.53
2022-08-03T10:02:34.539Z,101158.94
2022-08-03T10:05:02.816Z,101160.75
2022-08-03T10:07:31.030Z,101170.56
2022-08-03T10:10:30.521Z,101160.56
2022-08-03T10:12:50.394Z,101161.88
2022-08-03T10:16:22.286Z,101158.09
2022-08-03T10:18:08.800Z,101165.69
2022-08-03T10:20:42.415Z,101158.47
2022-08-03T10:23:11.981Z,101154.38
2022-08-03T10:25:43.821Z,101156.53
2022-08-03T10:28:17.648Z,101153.22
2022-08-03T10:30:53.970Z,101143.03
2022-08-03T10:33:49.538Z,101140.97
2022-08-03T10:36:18.357Z,101148.13
2022-08-03T10:38:52.860Z,101142.78
2022-08-03T10:41:22.720Z,101141.78
2022-08-03T10:43:59.875Z,101127.97
2022-08-03T10:46:30.425Z,101138.09
2022-08-03T10:48:59.570Z,101133.28
2022-08-03T10:51:32.103Z,101136.53
2022-08-03T10:54:01.954Z,101121.69
2022-08-03T10:57:10.203Z,101128.59
2022-08-03T11:00:04.856Z,101120.25
2022-08-03T11:03:10.939Z,101125.16
2022-08-03T11:05:44.317Z,101118.22
2022-08-03T11:08:30.818Z,101111.75
2022-08-03T11:11:02.703Z,101109.56
2022-08-03T11:13:33.979Z,101127.59
2022-08-03T11:16:21.870Z,101106.09
2022-08-03T11:19:00.436Z,101099.72
2022-08-03T11:21:59.897Z,101117.84
2022-08-03T11:24:58.930Z,101112.28
2022-08-03T11:27:32.977Z,101105.00
2022-08-03T11:30:09.617Z,101100.03
2022-08-03T11:32:58.111Z,101111.63
2022-08-03T11:35:30.660Z,101109.78
2022-08-03T11:38:11.323Z,101104.00
2022-08-03T11:40:44.247Z,101100.97
2022-08-03T11:43:47.923Z,101107.69
2022-08-03T11:46:28.240Z,101100.44
2022-08-03T11:49:10.514Z,101103.53
2022-08-03T11:51:41.093Z,101102.63
2022-08-03T11:54:09.419Z,101096.41
2022-08-03T11:56:48.963Z,101094.09
2022-08-03T11:59:22.103Z,101093.69
2022-08-03T12:01:51.439Z,101099.13
2022-08-03T12:04:19.854Z,101098.75
2022-08-03T12:07:01.647Z,101095.00
2022-08-03T12:09:29.974Z,101090.91
2022-08-03T12:12:00.435Z,101089.69
2022-08-03T12:14:49.730Z,101089.69
2022-08-03T12:17:19.175Z,101085.25
2022-08-03T12:19:47.791Z,101080.91
2022-08-03T12:22:17.906Z,101091.63
2022-08-03T12:24:47.567Z,101082.72
2022-08-03T12:27:26.087Z,101083.56
2022-08-03T12:29:58.432Z,101079.34
2022-08-03T12:32:28.333Z,101076.88
2022-08-03T12:35:00.827Z,101079.66
2022-08-03T12:37:31.664Z,101076.88
2022-08-03T12:40:10.162Z,101079.03
2022-08-03T12:42:42.563Z,101072.59
2022-08-03T12:45:21.416Z,101069.53
2022-08-03T12:47:55.280Z,101066.94
2022-08-03T12:50:29.440Z,101075.13
2022-08-03T12:53:00.464Z,101076.56
2022-08-03T12:55:57.268Z,101066.56
2022-08-03T12:58:34.211Z,101074.47
2022-08-03T13:01:05.208Z,101067.31
2022-08-03T13:03:43.551Z,101075.28
2022-08-03T13:06:15.383Z,101078.56
2022-08-03T13:08:47.889Z,101067.59
2022-08-03T13:11:52.682Z,101073.72
2022-08-03T13:14:15.309Z,101062.22
2022-08-03T13:16:48.463Z,101058.22
2022-08-03T13:19:16.662Z,101060.31
2022-08-03T13:22:01.977Z,101069.09
2022-08-03T13:24:35.342Z,101064.00
2022-08-03T13:28:01.165Z,101069.25
2022-08-03T13:29:53.950Z,101062.34
2022-08-03T13:32:23.067Z,101074.50
2022-08-03T13:34:51.390Z,101052.16
2022-08-03T13:37:19.756Z,101059.16
2022-08-03T13:39:58.914Z,101060.44
2022-08-03T13:42:30.498Z,101065.06
2022-08-03T13:44:59.243Z,101050.81
2022-08-03T13:47:27.934Z,101046.94
2022-08-03T13:50:00.844Z,101048.06
2022-08-03T13:52:32.689Z,101040.91
2022-08-03T13:55:02.863Z,101038.09
2022-08-03T13:58:02.670Z,101042.63
2022-08-03T14:00:28.212Z,101031.44
2022-08-03T14:03:13.372Z,101031.69
2022-08-03T14:05:43.263Z,101035.38
2022-08-03T14:08:11.982Z,101028.59
2022-08-03T14:10:43.571Z,101037.47
2022-08-03T14:13:17.629Z,101031.16
2022-08-03T14:15:50.152Z,101029.91
2022-08-03T14:18:28.839Z,101034.81
2022-08-03T14:21:07.442Z,101034.63
2022-08-03T14:23:37.662Z,101032.44
2022-08-03T14:26:08.972Z,101030.56
2022-08-03T14:28:37.790Z,101020.56
2022-08-03T14:31:08.216Z,101016.31
2022-08-03T14:33:44.470Z,101025.13
2022-08-03T14:36:12.714Z,101012.03
2022-08-03T14:38:40.947Z,101015.97
2022-08-03T14:41:12.171Z,101009.28
2022-08-03T14:44:01.716Z,101007.19
2022-08-03T14:46:31.933Z,101012.22
2022-08-03T14:50:33.249Z,101011.50
2022-08-03T14:51:51.345Z,101003.75
2022-08-03T14:54:22.853Z,101006.31
2022-08-03T14:56:52.559Z,101001.00
2022-08-03T14:59:20.802Z,100999.91
2022-08-03T15:02:04.459Z,101002.13
2022-08-03T15:04:35.902Z,101000.75
2022-08-03T15:07:04.271Z,100996.84
2022-08-03T15:09:32.600Z,100992.00
2022-08-03T15:12:02.263Z,100997.44
2022-08-03T15:14:33.341Z,100990.00
2022-08-03T15:17:03.306Z,100985.03
2022-08-03T15:20:00.985Z,100988.72
2022-08-03T15:22:24.853Z,100996.91
2022-08-03T15:24:53.907Z,100995.31
2022-08-03T15:27:23.581Z,100986.88
2022-08-03T15:30:10.169Z,100985.28
2022-08-03T15:32:38.714Z,100986.00
2022-08-03T15:35:07.502Z,100983.19
2022-08-03T15:37:35.853Z,100979.25
2022-08-03T15:40:04.735Z,100984.94
2022-08-03T15:42:35.417Z,100979.31
2022-08-03T15:45:03.917Z,100989.22
2022-08-03T15:47:32.121Z,100985.22
2022-08-03T15:50:00.392Z,100981.72
2022-08-03T15:52:28.915Z,100986.00
2022-08-03T15:54:57.250Z,100983.06
2022-08-03T15:57:25.645Z,100980.31
2022-08-03T15:59:55.251Z,100975.13
2022-08-03T16:02:23.629Z,100967.31
2022-08-03T16:04:52.253Z,100969.53
2022-08-03T16:07:41.147Z,100965.03
2022-08-03T16:10:30.640Z,100963.06
2022-08-03T16:13:00.218Z,100961.31
2022-08-03T16:15:30.010Z,100963.56
2022-08-03T16:17:58.234Z,100965.22
2022-08-03T16:20:34.199Z,100964.81
2022-08-03T16:23:11.439Z,100956.13
2022-08-03T16:25:41.826Z,100953.25
2022-08-03T16:28:14.607Z,100957.66
2022-08-03T16:30:46.679Z,100955.59
2022-08-03T16:33:17.898Z,100953.81
2022-08-03T16:35:49.569Z,100953.25
2022-08-03T16:38:19.328Z,100950.47
2022-08-03T16:40:51.647Z,100958.97
2022-08-03T16:43:22.098Z,100956.75
2022-08-03T16:45:52.174Z,100958.81
2022-08-03T16:48:20.801Z,100952.56
2022-08-03T16:50:49.446Z,100950.13
2022-08-03T16:53:18.686Z,100951.63
2022-08-03T16:56:05.561Z,100951.06
2022-08-03T16:58:41.460Z,100945.16
2022-08-03T17:01:22.378Z,100946.06
2022-08-03T17:04:01.369Z,100945.38
2022-08-03T17:06:34.321Z,100951.44
2022-08-03T17:09:09.174Z,100944.84
2022-08-03T17:11:46.430Z,100943.72
2022-08-03T17:14:17.108Z,100946.81
2022-08-03T17:16:52.487Z,100941.47
2022-08-03T17:19:24.558Z,100948.31
2022-08-03T17:22:04.479Z,100936.59
2022-08-03T17:24:35.500Z,100936.41
2022-08-03T17:28:42.291Z,100947.78
2022-08-03T17:30:07.797Z,100941.22
2022-08-03T17:32:42.222Z,100939.19
2022-08-03T17:35:12.141Z,100933.13
2022-08-03T17:37:58.638Z,100938.41
2022-08-03T17:40:30.915Z,100942.03
2022-08-03T17:43:00.041Z,100939.56
2022-08-03T17:45:42.251Z,100932.84
2022-08-03T17:48:18.464Z,100941.94
2022-08-03T17:50:54.289Z,100939.81
2022-08-03T17:53:29.329Z,100948.06
2022-08-03T17:56:40.860Z,100944.69
2022-08-03T17:59:09.098Z,100941.50
2022-08-03T18:02:12.320Z,100937.03
2022-08-03T18:05:00.732Z,100940.22
2022-08-03T18:07:40.910Z,100943.47
2022-08-03T18:10:15.216Z,100947.03
2022-08-03T18:12:52.248Z,100943.63
2022-08-03T18:15:30.272Z,100941.91
2022-08-03T18:18:10.703Z,100938.69
2022-08-03T18:20:42.687Z,100948.16
2022-08-03T18:26:05.078Z,100948.84
2022-08-03T18:28:38.382Z,100950.16
2022-08-03T18:31:07.784Z,100945.13
2022-08-03T18:34:18.463Z,100947.09
2022-08-03T18:36:30.902Z,100942.53
2022-08-03T18:39:02.523Z,100948.53
2022-08-03T18:41:34.819Z,100945.66
2022-08-03T18:44:08.520Z,100941.00
2022-08-03T18:46:51.502Z,100937.00
2022-08-03T18:49:41.323Z,100939.69
2022-08-03T18:52:18.283Z,100939.06
2022-08-03T18:55:08.431Z,100936.56
2022-08-03T18:57:56.374Z,100932.13
2022-08-03T19:00:42.708Z,100937.66
2022-08-03T19:03:23.609Z,100938.28
2022-08-03T19:06:02.380Z,100937.72
2022-08-03T19:08:47.776Z,100940.91
2022-08-03T19:11:28.127Z,100940.75
2022-08-03T19:14:00.365Z,100944.00
2022-08-03T19:16:38.856Z,100939.59
2022-08-03T19:19:14.562Z,100939.50
2022-08-03T19:21:43.323Z,100947.69
2022-08-03T19:24:14.960Z,100946.78
2022-08-03T19:26:44.081Z,100952.28
2022-08-03T19:29:18.786Z,100954.47
2022-08-03T19:31:59.657Z,100949.78
2022-08-03T19:34:30.061Z,100958.03
2022-08-03T19:36:59.433Z,100953.28
2022-08-03T19:39:31.707Z,100965.75
2022-08-03T19:42:18.504Z,100963.75
2022-08-03T19:44:56.282Z,100962.28
2022-08-03T19:47:33.356Z,100954.56
2022-08-03T19:50:14.119Z,100962.06
2022-08-03T19:52:47.779Z,100964.63
2022-08-03T19:55:19.277Z,100958.13
2022-08-03T19:57:49.706Z,100957.97
2022-08-03T20:00:26.710Z,100956.69
2022-08-03T20:02:59.367Z,100957.06
2022-08-03T20:05:28.451Z,100959.34
2022-08-03T20:08:00.252Z,100958.31
2022-08-03T20:10:32.207Z,100961.31
2022-08-03T20:13:01.429Z,100964.63
2022-08-03T20:15:32.130Z,100956.81
2022-08-03T20:18:01.100Z,100955.06
2022-08-03T20:20:33.142Z,100951.38
2022-08-03T20:23:07.475Z,100959.47
2022-08-03T20:25:57.084Z,100961.03
2022-08-03T20:28:32.527Z,100957.28
2022-08-03T20:31:01.872Z,100960.94
2022-08-03T20:33:46.145Z,100958.09
2022-08-03T20:36:17.896Z,100957.50
2022-08-03T20:38:47.675Z,100961.91
2022-08-03T20:41:18.441Z,100966.78
2022-08-03T20:43:49.515Z,100967.28
2022-08-03T20:46:36.013Z,100968.31
2022-08-03T20:49:09.505Z,100966.91
2022-08-03T20:51:52.759Z,100953.78
2022-08-03T20:54:29.510Z,100959.94
2022-08-03T20:57:04.400Z,100966.78
2022-08-03T20:59:50.447Z,100959.63
2022-08-03T21:02:30.478Z,100957.09
2022-08-03T21:05:03.342Z,100956.28
2022-08-03T21:08:03.805Z,100957.59
2022-08-03T21:10:34.073Z,100960.34
2022-08-03T21:13:04.956Z,100954.31
2022-08-03T21:13:18.099Z,100952.16
2022-08-03T21:16:11.743Z,100946.69
2022-08-03T21:18:46.009Z,100943.00
2022-08-03T21:21:17.608Z,100944.44
2022-08-03T21:23:49.833Z,100944.91
2022-08-03T21:26:20.426Z,100943.25
2022-08-03T21:28:52.565Z,100947.28
2022-08-03T21:31:25.428Z,100942.41
2022-08-03T21:33:57.580Z,100940.75
2022-08-03T21:36:29.057Z,100945.50
2022-08-03T21:38:58.258Z,100947.75
2022-08-03T21:41:28.828Z,100955.31
2022-08-03T21:43:58.985Z,100940.41
2022-08-03T21:46:30.781Z,100949.28
2022-08-03T21:50:06.777Z,100943.81
2022-08-03T21:51:53.326Z,100949.75
2022-08-03T21:54:27.629Z,100945.38
2022-08-03T21:56:58.027Z,100945.44
2022-08-03T21:59:27.983Z,100942.81
2022-08-03T22:01:58.753Z,100939.84
2022-08-03T22:04:50.579Z,100941.41
2022-08-03T22:07:17.903Z,100936.75
2022-08-03T22:09:51.065Z,100938.06
2022-08-03T22:12:23.807Z,100934.63
2022-08-03T22:15:01.147Z,100929.31
2022-08-03T22:17:55.439Z,100934.91
2022-08-03T22:20:21.403Z,100943.66
2022-08-03T22:22:55.887Z,100940.50
2022-08-03T22:25:30.575Z,100938.66
2022-08-03T22:28:01.517Z,100942.25
2022-08-03T22:30:33.090Z,100944.03
2022-08-03T22:33:05.064Z,100935.06
2022-08-03T22:35:44.293Z,100952.41
2022-08-03T22:38:17.554Z,100940.81
2022-08-03T22:40:48.163Z,100932.84
2022-08-03T22:43:16.923Z,100943.16
2022-08-03T22:46:10.628Z,100939.72
2022-08-03T22:48:40.745Z,100943.59
2022-08-03T22:51:10.521Z,100944.47
2022-08-03T22:53:41.288Z,100948.50
2022-08-03T22:56:10.056Z,100944.13
2022-08-03T22:58:38.334Z,100934.69
2022-08-03T23:01:10.899Z,100940.06
2022-08-03T23:03:59.902Z,100941.25
2022-08-03T23:06:35.861Z,100930.50
2022-08-03T23:09:08.442Z,100937.25
2022-08-03T23:11:45.437Z,100939.03
2022-08-03T23:14:17.658Z,100930.03
2022-08-03T23:16:48.988Z,100939.28
2022-08-03T23:19:25.514Z,100943.00
2022-08-03T23:22:00.385Z,100932.94
2022-08-03T23:24:31.971Z,100932.94
2022-08-03T23:27:00.583Z,100929.63
2022-08-03T23:29:31.401Z,100933.06
2022-08-03T23:32:03.223Z,100925.81
2022-08-03T23:34:51.485Z,100929.88
2022-08-03T23:37:21.155Z,100919.88
2022-08-03T23:39:50.543Z,100932.75
2022-08-03T23:42:21.110Z,100925.47
2022-08-03T23:44:56.520Z,100930.84
2022-08-03T23:47:46.251Z,100933.78
2022-08-03T23:50:16.195Z,100928.09
2022-08-03T23:52:59.158Z,100917.69
2022-08-03T23:55:45.777Z,100919.06
2022-08-03T23:58:33.638Z,100923.31
